createdAt,value
2019-02-12T00:01:29.562Z,102280.46
2019-02-12T00:04:01.478Z,102269.14
2019-02-12T00:06:33.405Z,102273.16
2019-02-12T00:09:07.924Z,102261.08
2019-02-12T00:11:39.849Z,102266.50
2019-02-12T00:14:11.786Z,102279.61
2019-02-12T00:16:43.700Z,102275.86
2019-02-12T00:19:15.626Z,102283.53
2019-02-12T00:21:47.571Z,102288.78
2019-02-12T00:24:19.562Z,102284.11
2019-02-12T00:26:51.550Z,102288.20
2019-02-12T00:29:23.462Z,102276.69
2019-02-12T00:31:55.396Z,102282.31
2019-02-12T00:34:27.318Z,102281.47
2019-02-12T00:36:59.312Z,102280.71
2019-02-12T00:39:31.249Z,102291.16
2019-02-12T00:42:03.159Z,102291.68
2019-02-12T00:44:35.078Z,102301.41
2019-02-12T00:47:07.309Z,102306.03
2019-02-12T00:49:39.566Z,102319.69
2019-02-12T00:52:11.557Z,102321.19
2019-02-12T00:54:43.559Z,102318.73
2019-02-12T00:57:15.497Z,102317.86
2019-02-12T00:59:47.425Z,102329.17
2019-02-12T01:02:19.555Z,102316.61
2019-02-12T01:04:51.557Z,102330.33
2019-02-12T01:07:23.545Z,102326.26
2019-02-12T01:09:55.487Z,102328.94
2019-02-12T01:12:27.398Z,102341.35
2019-02-12T01:14:59.412Z,102345.14
2019-02-12T01:17:31.321Z,102354.17
2019-02-12T01:20:03.618Z,102350.56
2019-02-12T01:22:35.542Z,102354.00
2019-02-12T01:25:09.106Z,102347.64
2019-02-12T01:27:41.011Z,102351.82
2019-02-12T01:30:16.953Z,102362.84
2019-02-12T01:32:50.008Z,102375.46
2019-02-12T01:35:21.933Z,102358.54
2019-02-12T01:37:53.900Z,102366.73
2019-02-12T01:40:26.094Z,102388.75
2019-02-12T01:42:58.285Z,102378.52
2019-02-12T01:45:30.351Z,102408.33
2019-02-12T01:48:02.275Z,102391.39
2019-02-12T01:50:34.389Z,102371.14
2019-02-12T01:53:06.466Z,102391.14
2019-02-12T01:55:38.915Z,102384.49
2019-02-12T01:58:10.920Z,102375.84
2019-02-12T02:00:42.837Z,102378.75
2019-02-12T02:03:14.757Z,102379.08
2019-02-12T02:05:47.119Z,102382.64
2019-02-12T02:08:22.052Z,102388.78
2019-02-12T02:10:53.966Z,102385.72
2019-02-12T02:13:25.904Z,102375.36
2019-02-12T02:15:57.836Z,102375.98
2019-02-12T02:18:29.770Z,102373.66
2019-02-12T02:21:01.704Z,102395.15
2019-02-12T02:23:33.637Z,102379.94
2019-02-12T02:26:05.564Z,102388.53
2019-02-12T02:28:37.498Z,102399.30
2019-02-12T02:31:09.694Z,102385.84
2019-02-12T02:33:42.074Z,102400.44
2019-02-12T02:36:14.023Z,102402.20
2019-02-12T02:38:45.975Z,102399.56
2019-02-12T02:41:17.912Z,102404.41
2019-02-12T02:43:49.841Z,102406.22
2019-02-12T02:46:21.808Z,102410.72
2019-02-12T02:48:53.770Z,102421.59
2019-02-12T02:51:25.781Z,102418.53
2019-02-12T02:53:57.755Z,102421.51
2019-02-12T02:56:29.668Z,102427.24
2019-02-12T02:59:01.610Z,102421.05
2019-02-12T03:01:33.526Z,102436.78
2019-02-12T03:04:05.482Z,102442.69
2019-02-12T03:06:37.628Z,102440.05
2019-02-12T03:09:09.630Z,102441.70
2019-02-12T03:11:41.559Z,102450.52
2019-02-12T03:14:13.476Z,102450.68
2019-02-12T03:16:45.411Z,102450.30
2019-02-12T03:19:17.591Z,102442.77
2019-02-12T03:21:49.518Z,102453.87
2019-02-12T03:24:21.519Z,102446.72
2019-02-12T03:26:53.449Z,102447.05
2019-02-12T03:29:25.374Z,102448.09
2019-02-12T03:31:57.882Z,102441.80
2019-02-12T03:34:30.108Z,102448.55
2019-02-12T03:37:02.048Z,102445.40
2019-02-12T03:39:33.984Z,102451.08
2019-02-12T03:42:06.206Z,102449.14
2019-02-12T03:44:38.126Z,102457.39
2019-02-12T03:47:10.091Z,102451.88
2019-02-12T03:49:42.026Z,102455.22
2019-02-12T03:52:13.964Z,102456.36
2019-02-12T03:54:45.880Z,102455.46
2019-02-12T03:57:17.851Z,102475.48
2019-02-12T03:59:50.534Z,102492.52
2019-02-12T04:02:22.458Z,102504.84
2019-02-12T04:04:54.464Z,102503.15
2019-02-12T04:07:26.433Z,102509.06
2019-02-12T04:09:58.349Z,102495.61
2019-02-12T04:12:30.286Z,102499.84
2019-02-12T04:15:02.200Z,102496.92
2019-02-12T04:17:34.137Z,102500.17
2019-02-12T04:20:06.825Z,102494.22
2019-02-12T04:22:38.756Z,102499.30
2019-02-12T04:25:10.747Z,102519.08
2019-02-12T04:27:42.705Z,102523.78
2019-02-12T04:30:14.635Z,102518.11
2019-02-12T04:32:46.584Z,102537.09
2019-02-12T04:35:18.539Z,102520.52
2019-02-12T04:37:50.482Z,102519.99
2019-02-12T04:40:22.414Z,102531.22
2019-02-12T04:42:55.150Z,102532.95
2019-02-12T04:45:27.069Z,102538.15
2019-02-12T04:47:59.035Z,102525.36
2019-02-12T04:50:31.374Z,102521.55
2019-02-12T04:53:03.302Z,102519.62
2019-02-12T04:55:35.228Z,102522.79
2019-02-12T04:58:07.148Z,102532.89
2019-02-12T05:00:39.258Z,102544.72
2019-02-12T05:03:11.756Z,102545.39
2019-02-12T05:05:44.487Z,102547.18
2019-02-12T05:08:16.424Z,102543.14
2019-02-12T05:11:04.380Z,102544.77
2019-02-12T05:13:36.868Z,102546.95
2019-02-12T05:16:08.830Z,102556.11
2019-02-12T05:18:41.030Z,102561.14
2019-02-12T05:21:12.941Z,102557.06
2019-02-12T05:23:45.054Z,102555.92
2019-02-12T05:26:17.157Z,102558.27
2019-02-12T05:28:49.151Z,102559.84
2019-02-12T05:31:21.442Z,102567.39
2019-02-12T05:33:53.921Z,102573.48
2019-02-12T05:36:26.451Z,102573.41
2019-02-12T05:38:59.172Z,102572.61
2019-02-12T05:41:31.086Z,102581.16
2019-02-12T05:44:03.119Z,102575.50
2019-02-12T05:46:35.231Z,102579.63
2019-02-12T05:49:07.608Z,102583.11
2019-02-12T05:51:39.553Z,102583.63
2019-02-12T05:54:11.991Z,102586.22
2019-02-12T05:56:43.990Z,102589.87
2019-02-12T05:59:15.928Z,102599.33
2019-02-12T06:01:48.026Z,102595.52
2019-02-12T06:04:19.953Z,102596.34
2019-02-12T06:06:51.895Z,102587.59
2019-02-12T06:09:23.803Z,102592.45
2019-02-12T06:11:55.761Z,102599.99
2019-02-12T06:14:28.104Z,102601.05
2019-02-12T06:17:00.065Z,102600.72
2019-02-12T06:19:31.975Z,102613.09
2019-02-12T06:22:03.907Z,102620.69
2019-02-12T06:24:35.843Z,102620.78
2019-02-12T06:27:07.763Z,102631.15
2019-02-12T06:29:39.696Z,102646.95
2019-02-12T06:32:11.633Z,102630.11
2019-02-12T06:34:44.019Z,102632.53
2019-02-12T06:37:16.017Z,102639.83
2019-02-12T06:39:47.997Z,102634.55
2019-02-12T06:42:19.912Z,102632.31
2019-02-12T06:44:51.843Z,102639.27
2019-02-12T06:47:23.766Z,102639.77
2019-02-12T06:49:55.695Z,102641.95
2019-02-12T06:52:27.612Z,102642.61
2019-02-12T06:54:59.548Z,102652.97
2019-02-12T06:57:31.457Z,102656.11
2019-02-12T07:00:03.857Z,102665.11
2019-02-12T07:03:17.125Z,102659.72
2019-02-12T07:06:02.669Z,102659.24
2019-02-12T07:09:04.591Z,102657.76
2019-02-12T07:11:46.317Z,102662.05
2019-02-12T07:14:40.724Z,102670.16
2019-02-12T07:17:26.044Z,102677.09
2019-02-12T07:20:43.648Z,102673.38
2019-02-12T07:23:43.037Z,102680.65
2019-02-12T07:26:34.400Z,102677.17
2019-02-12T07:29:57.187Z,102688.02
2019-02-12T07:32:54.368Z,102701.29
2019-02-12T07:36:05.350Z,102693.67
2019-02-12T07:38:47.468Z,102700.28
2019-02-12T07:41:24.015Z,102712.38
2019-02-12T07:44:03.130Z,102718.84
2019-02-12T07:46:57.281Z,102717.70
2019-02-12T07:49:42.683Z,102722.55
2019-02-12T07:52:37.064Z,102727.41
2019-02-12T07:55:20.919Z,102735.17
2019-02-12T07:58:12.766Z,102747.16
2019-02-12T08:00:57.280Z,102746.30
2019-02-12T08:04:00.369Z,102751.63
2019-02-12T08:06:48.447Z,102758.98
2019-02-12T08:10:02.184Z,102770.39
2019-02-12T08:12:59.390Z,102762.05
2019-02-12T08:15:56.696Z,102785.09
2019-02-12T08:18:50.411Z,102798.04
2019-02-12T08:21:49.393Z,102803.39
2019-02-12T08:24:34.327Z,102809.07
2019-02-12T08:27:19.796Z,102814.08
2019-02-12T08:30:15.580Z,102817.05
2019-02-12T08:33:15.225Z,102823.69
2019-02-12T08:35:57.287Z,102837.82
2019-02-12T08:38:39.488Z,102782.53
2019-02-12T08:41:21.843Z,102841.45
2019-02-12T08:44:06.997Z,102844.78
2019-02-12T08:47:14.866Z,102854.32
2019-02-12T08:50:03.087Z,102852.08
2019-02-12T08:53:08.634Z,102853.75
2019-02-12T08:55:59.983Z,102863.02
2019-02-12T08:58:45.496Z,102864.92
2019-02-12T09:01:37.089Z,102870.19
2019-02-12T09:04:35.975Z,102876.20
2019-02-12T09:07:18.318Z,102887.22
2019-02-12T09:10:09.640Z,102888.34
2019-02-12T09:13:02.825Z,102887.80
2019-02-12T09:15:57.269Z,102886.79
2019-02-12T09:19:10.942Z,102896.75
2019-02-12T09:21:56.399Z,102902.91
2019-02-12T09:24:38.558Z,102906.78
2019-02-12T09:27:23.672Z,102904.52
2019-02-12T09:30:17.941Z,102918.37
2019-02-12T09:33:23.208Z,102917.72
2019-02-12T09:36:35.921Z,102928.19
2019-02-12T09:39:36.228Z,102928.92
2019-02-12T09:42:24.888Z,102932.97
2019-02-12T09:45:07.505Z,102941.23
2019-02-12T09:47:49.776Z,102949.98
2019-02-12T09:50:35.028Z,102953.64
2019-02-12T09:53:46.266Z,102951.69
2019-02-12T09:56:34.635Z,102955.31
2019-02-12T09:59:39.325Z,102955.65
2019-02-12T10:02:41.495Z,102957.50
2019-02-12T10:05:21.177Z,102957.27
2019-02-12T10:08:18.994Z,102957.09
2019-02-12T10:11:13.305Z,102967.31
2019-02-12T10:14:26.308Z,102974.30
2019-02-12T10:17:17.415Z,102977.03
2019-02-12T10:19:53.941Z,102983.98
2019-02-12T10:22:44.994Z,102986.02
2019-02-12T10:25:23.467Z,102990.81
2019-02-12T10:28:20.915Z,102982.80
2019-02-12T10:31:09.033Z,102991.30
2019-02-12T10:33:40.955Z,102988.12
2019-02-12T10:36:13.000Z,102990.72
2019-02-12T10:38:44.964Z,102990.92
2019-02-12T10:41:16.850Z,102997.72
2019-02-12T10:43:48.787Z,102996.65
2019-02-12T10:46:20.743Z,102996.84
2019-02-12T10:48:52.823Z,103002.73
2019-02-12T10:51:24.785Z,102996.16
2019-02-12T10:53:57.053Z,103008.20
2019-02-12T10:56:29.018Z,102999.13
2019-02-12T10:59:00.964Z,103001.20
2019-02-12T11:01:32.894Z,102997.73
2019-02-12T11:04:05.041Z,102986.74
2019-02-12T11:06:37.040Z,102992.09
2019-02-12T11:09:11.188Z,102993.78
2019-02-12T11:11:43.136Z,102993.93
2019-02-12T11:14:15.057Z,102991.26
2019-02-12T11:16:47.044Z,102989.85
2019-02-12T11:19:19.033Z,102993.22
2019-02-12T11:21:51.029Z,102989.45
2019-02-12T11:24:22.963Z,102994.67
2019-02-12T11:26:55.177Z,103000.84
2019-02-12T11:29:27.091Z,102946.66
2019-02-12T11:31:59.321Z,103005.00
2019-02-12T11:34:31.261Z,103009.44
2019-02-12T11:37:03.324Z,103023.78
2019-02-12T11:39:35.282Z,103025.66
2019-02-12T11:42:07.281Z,103029.12
2019-02-12T11:44:39.238Z,103030.72
2019-02-12T11:47:11.212Z,103039.15
2019-02-12T11:49:43.144Z,103033.58
2019-02-12T11:52:15.098Z,103029.89
2019-02-12T11:54:47.014Z,103042.34
2019-02-12T11:57:18.977Z,103036.09
2019-02-12T11:59:52.347Z,103033.23
2019-02-12T12:02:26.050Z,103031.53
2019-02-12T12:05:00.292Z,103035.39
2019-02-12T12:07:32.357Z,103020.61
2019-02-12T12:10:05.619Z,102989.69
2019-02-12T12:12:37.569Z,103032.80
2019-02-12T12:15:14.262Z,103031.34
2019-02-12T12:17:46.447Z,103033.69
2019-02-12T12:20:18.422Z,103041.37
2019-02-12T12:22:50.547Z,103043.73
2019-02-12T12:25:22.455Z,103042.50
2019-02-12T12:27:54.697Z,103049.56
2019-02-12T12:30:26.736Z,103050.37
2019-02-12T12:32:58.700Z,103053.77
2019-02-12T12:35:30.644Z,103059.95
2019-02-12T12:38:02.569Z,103067.42
2019-02-12T12:40:34.565Z,103018.42
2019-02-12T12:43:06.512Z,103072.64
2019-02-12T12:45:38.592Z,103086.19
2019-02-12T12:48:10.664Z,103072.08
2019-02-12T12:50:42.679Z,103077.60
2019-02-12T12:53:14.938Z,103078.58
2019-02-12T12:55:46.980Z,103073.71
2019-02-12T12:58:18.977Z,103076.71
2019-02-12T13:00:50.937Z,103083.43
2019-02-12T13:03:22.981Z,103070.56
2019-02-12T13:05:54.985Z,103096.77
2019-02-12T13:08:27.212Z,103088.20
2019-02-12T13:10:59.139Z,103103.04
2019-02-12T13:13:31.120Z,103091.66
2019-02-12T13:16:03.470Z,103102.55
2019-02-12T13:18:35.544Z,103098.97
2019-02-12T13:21:11.819Z,103094.26
2019-02-12T13:23:43.851Z,103110.52
2019-02-12T13:26:15.970Z,103110.11
2019-02-12T13:28:47.998Z,103111.42
2019-02-12T13:31:23.104Z,103111.64
2019-02-12T13:33:55.409Z,103116.69
2019-02-12T13:36:27.385Z,103109.38
2019-02-12T13:39:01.915Z,103110.41
2019-02-12T13:41:33.821Z,103102.48
2019-02-12T13:44:05.908Z,103107.18
2019-02-12T13:46:37.784Z,103108.78
2019-02-12T13:49:09.753Z,103108.01
2019-02-12T13:51:41.715Z,103113.38
2019-02-12T13:54:13.860Z,103124.56
2019-02-12T13:56:45.899Z,103129.80
2019-02-12T13:59:17.768Z,103131.16
2019-02-12T14:01:49.710Z,103121.59
2019-02-12T14:04:21.767Z,103134.17
2019-02-12T14:06:53.695Z,103124.44
2019-02-12T14:09:25.620Z,103124.76
2019-02-12T14:11:57.674Z,103118.75
2019-02-12T14:14:29.595Z,103115.36
2019-02-12T14:17:01.588Z,103122.09
2019-02-12T14:19:33.506Z,103121.70
2019-02-12T14:22:05.919Z,103125.19
2019-02-12T14:24:39.734Z,103122.43
2019-02-12T14:27:11.692Z,103123.02
2019-02-12T14:29:43.578Z,103126.34
2019-02-12T14:32:15.855Z,103128.52
2019-02-12T14:34:49.195Z,103125.36
2019-02-12T14:37:21.139Z,103134.77
2019-02-12T14:39:53.067Z,103137.45
2019-02-12T14:42:24.975Z,103136.65
2019-02-12T14:44:56.934Z,103144.92
2019-02-12T14:47:29.629Z,103144.69
2019-02-12T14:50:03.213Z,103139.73
2019-02-12T14:52:36.487Z,103134.55
2019-02-12T14:55:09.086Z,103134.56
2019-02-12T14:57:41.115Z,103134.17
2019-02-12T15:00:20.749Z,103130.30
2019-02-12T15:02:52.728Z,103136.22
2019-02-12T15:05:24.624Z,103138.58
2019-02-12T15:07:56.938Z,103142.31
2019-02-12T15:10:29.014Z,103137.30
2019-02-12T15:13:01.126Z,103141.53
2019-02-12T15:15:33.055Z,103140.88
2019-02-12T15:18:05.071Z,103142.83
2019-02-12T15:20:37.172Z,103134.18
2019-02-12T15:23:09.322Z,103136.73
2019-02-12T15:25:42.203Z,103136.58
2019-02-12T15:28:14.164Z,103138.98
2019-02-12T15:30:46.215Z,103132.50
2019-02-12T15:33:18.261Z,103138.58
2019-02-12T15:35:50.242Z,103141.91
2019-02-12T15:38:23.189Z,103142.98
2019-02-12T15:40:55.126Z,103144.81
2019-02-12T15:43:27.399Z,103138.99
2019-02-12T15:46:00.946Z,103140.47
2019-02-12T15:48:33.645Z,103143.39
2019-02-12T15:51:05.732Z,103147.12
2019-02-12T15:53:38.122Z,103139.22
2019-02-12T15:56:10.427Z,103137.93
2019-02-12T15:58:51.695Z,103140.36
2019-02-12T16:01:26.209Z,103148.48
2019-02-12T16:03:59.810Z,103146.31
2019-02-12T16:06:31.940Z,103147.45
2019-02-12T16:09:05.351Z,103155.53
2019-02-12T16:11:37.282Z,103150.92
2019-02-12T16:14:10.634Z,103160.59
2019-02-12T16:16:42.597Z,103159.79
2019-02-12T16:19:14.641Z,103162.55
2019-02-12T16:21:46.556Z,103157.56
2019-02-12T16:24:18.812Z,103160.58
2019-02-12T16:26:50.817Z,103162.94
2019-02-12T16:29:22.737Z,103163.75
2019-02-12T16:31:55.077Z,103170.80
2019-02-12T16:34:28.575Z,103165.45
2019-02-12T16:37:00.947Z,103166.76
2019-02-12T16:39:32.975Z,103164.56
2019-02-12T16:42:04.883Z,103169.03
2019-02-12T16:44:37.395Z,103173.98
2019-02-12T16:47:10.202Z,103170.90
2019-02-12T16:49:42.115Z,103175.92
2019-02-12T16:52:20.624Z,103176.73
2019-02-12T16:54:47.967Z,103173.48
2019-02-12T16:57:20.262Z,103177.38
2019-02-12T16:59:52.529Z,103174.61
2019-02-12T17:02:24.481Z,103179.39
2019-02-12T17:04:56.395Z,103180.44
2019-02-12T17:07:28.386Z,103175.00
2019-02-12T17:10:00.348Z,103177.11
2019-02-12T17:12:32.355Z,103173.59
2019-02-12T17:15:05.392Z,103176.83
2019-02-12T17:17:37.728Z,103181.85
2019-02-12T17:20:19.365Z,103180.06
2019-02-12T17:22:51.584Z,103182.98
2019-02-12T17:25:23.492Z,103177.95
2019-02-12T17:27:55.438Z,103185.26
2019-02-12T17:30:27.749Z,103186.23
2019-02-12T17:33:00.023Z,103186.97
2019-02-12T17:35:31.972Z,103179.75
2019-02-12T17:38:03.966Z,103180.88
2019-02-12T17:40:35.891Z,103177.55
2019-02-12T17:43:07.826Z,103187.52
2019-02-12T17:45:39.911Z,103192.17
2019-02-12T17:48:12.038Z,103186.98
2019-02-12T17:50:44.017Z,103186.80
2019-02-12T17:53:17.266Z,103185.91
2019-02-12T17:55:49.863Z,103183.38
2019-02-12T17:58:21.762Z,103183.73
2019-02-12T18:00:53.689Z,103178.28
2019-02-12T18:03:25.603Z,103174.70
2019-02-12T18:05:57.526Z,103179.96
2019-02-12T18:08:29.458Z,103173.42
2019-02-12T18:11:18.753Z,103167.97
2019-02-12T18:13:50.713Z,103163.58
2019-02-12T18:16:22.703Z,103155.11
2019-02-12T18:18:54.645Z,103163.71
2019-02-12T18:21:26.559Z,103164.84
2019-02-12T18:23:58.555Z,103166.38
2019-02-12T18:26:33.262Z,103168.08
2019-02-12T18:29:05.144Z,103163.53
2019-02-12T18:31:37.150Z,103160.43
2019-02-12T18:34:09.069Z,103160.91
2019-02-12T18:36:41.373Z,103157.48
2019-02-12T18:39:13.322Z,103164.98
2019-02-12T18:41:45.289Z,103160.92
2019-02-12T18:44:17.201Z,103163.28
2019-02-12T18:46:49.143Z,103167.17
2019-02-12T18:49:21.122Z,103163.59
2019-02-12T18:51:53.154Z,103168.77
2019-02-12T18:54:25.091Z,103167.91
2019-02-12T18:56:57.352Z,103171.44
2019-02-12T18:59:29.292Z,103168.36
2019-02-12T19:02:01.207Z,103166.08
2019-02-12T19:04:33.156Z,103161.09
2019-02-12T19:07:05.069Z,103158.00
2019-02-12T19:09:37.781Z,103159.14
2019-02-12T19:12:09.705Z,103160.59
2019-02-12T19:14:41.738Z,103155.56
2019-02-12T19:17:13.677Z,103153.28
2019-02-12T19:19:45.601Z,103148.23
2019-02-12T19:22:17.523Z,103143.59
2019-02-12T19:24:49.908Z,103139.36
2019-02-12T19:27:21.839Z,103134.40
2019-02-12T19:29:53.769Z,103131.80
2019-02-12T19:32:25.711Z,103136.66
2019-02-12T19:34:57.630Z,103140.31
2019-02-12T19:37:29.551Z,103147.09
2019-02-12T19:40:01.463Z,103142.13
2019-02-12T19:42:33.396Z,103143.25
2019-02-12T19:45:13.695Z,103139.03
2019-02-12T19:47:45.787Z,103135.61
2019-02-12T19:50:17.708Z,103135.13
2019-02-12T19:52:49.692Z,103133.98
2019-02-12T19:55:21.627Z,103140.40
2019-02-12T19:57:53.547Z,103138.20
2019-02-12T20:00:25.789Z,103131.55
2019-02-12T20:02:58.142Z,103131.90
2019-02-12T20:05:30.055Z,103138.23
2019-02-12T20:08:01.974Z,103137.89
2019-02-12T20:10:33.902Z,103131.48
2019-02-12T20:13:05.855Z,103131.33
2019-02-12T20:15:37.837Z,103128.25
2019-02-12T20:18:09.788Z,103126.62
2019-02-12T20:20:41.698Z,103126.47
2019-02-12T20:23:13.673Z,103129.39
2019-02-12T20:25:45.640Z,103129.48
2019-02-12T20:28:17.551Z,103128.57
2019-02-12T20:30:49.557Z,103128.17
2019-02-12T20:33:21.937Z,103120.05
2019-02-12T20:35:54.959Z,103120.12
2019-02-12T20:38:27.724Z,103112.07
2019-02-12T20:40:59.652Z,103114.59
2019-02-12T20:43:31.594Z,103106.63
2019-02-12T20:46:03.549Z,103114.59
2019-02-12T20:48:35.469Z,103121.02
2019-02-12T20:51:07.394Z,103110.94
2019-02-12T20:53:39.309Z,103109.72
2019-02-12T20:56:11.621Z,103105.15
2019-02-12T20:58:44.575Z,103103.52
2019-02-12T21:01:16.510Z,103097.63
2019-02-12T21:03:48.431Z,103101.84
2019-02-12T21:06:20.391Z,103110.42
2019-02-12T21:08:52.306Z,103113.98
2019-02-12T21:11:24.254Z,103117.86
2019-02-12T21:13:56.596Z,103109.37
2019-02-12T21:16:28.548Z,103114.39
2019-02-12T21:19:00.567Z,103121.20
2019-02-12T21:21:32.522Z,103125.73
2019-02-12T21:24:04.446Z,103108.82
2019-02-12T21:26:36.830Z,103105.19
2019-02-12T21:29:08.824Z,103110.20
2019-02-12T21:31:40.745Z,103106.13
2019-02-12T21:34:13.456Z,103109.05
2019-02-12T21:36:45.739Z,103101.48
2019-02-12T21:39:19.329Z,103103.99
2019-02-12T21:41:51.297Z,103103.98
2019-02-12T21:44:23.179Z,103099.55
2019-02-12T21:46:55.095Z,103097.91
2019-02-12T21:49:27.368Z,103083.20
2019-02-12T21:51:59.273Z,103084.72
2019-02-12T21:54:31.222Z,103086.00
2019-02-12T21:57:03.171Z,103083.55
2019-02-12T21:59:35.428Z,103082.56
2019-02-12T22:02:07.449Z,103084.02
2019-02-12T22:04:39.358Z,103077.29
2019-02-12T22:07:11.300Z,103069.14
2019-02-12T22:09:43.321Z,103060.27
2019-02-12T22:12:15.617Z,103070.91
2019-02-12T22:14:47.531Z,103069.81
2019-02-12T22:17:19.467Z,103073.91
2019-02-12T22:19:51.398Z,103076.64
2019-02-12T22:22:23.326Z,103070.94
2019-02-12T22:24:55.261Z,103071.88
2019-02-12T22:27:27.234Z,103088.41
2019-02-12T22:29:59.538Z,103080.17
2019-02-12T22:32:31.459Z,103085.27
2019-02-12T22:35:03.742Z,103077.61
2019-02-12T22:37:36.317Z,103078.98
2019-02-12T22:40:11.994Z,103071.99
2019-02-12T22:42:44.010Z,103063.67
2019-02-12T22:45:26.235Z,103054.14
2019-02-12T22:47:58.554Z,103058.92
2019-02-12T22:50:30.487Z,103062.48
2019-02-12T22:53:02.423Z,103059.31
2019-02-12T22:55:34.422Z,103051.98
2019-02-12T22:58:06.367Z,103059.17
2019-02-12T23:00:50.234Z,103057.05
2019-02-12T23:03:22.622Z,103049.88
2019-02-12T23:05:54.568Z,103054.09
2019-02-12T23:08:26.625Z,103062.53
2019-02-12T23:10:58.574Z,103055.29
2019-02-12T23:13:30.849Z,103055.05
2019-02-12T23:16:03.316Z,103060.99
2019-02-12T23:18:35.243Z,103065.95
2019-02-12T23:21:07.279Z,103064.03
2019-02-12T23:23:39.518Z,103053.97
2019-02-12T23:26:11.451Z,103053.93
2019-02-12T23:28:43.407Z,103060.52
2019-02-12T23:31:15.329Z,103053.38
2019-02-12T23:33:47.540Z,103045.56
2019-02-12T23:36:19.458Z,103054.14
2019-02-12T23:38:51.474Z,103047.62
2019-02-12T23:41:23.402Z,103053.95
2019-02-12T23:43:55.405Z,103062.53
2019-02-12T23:46:27.605Z,103063.58
2019-02-12T23:48:59.620Z,103057.53
2019-02-12T23:51:31.959Z,103058.05
2019-02-12T23:54:03.888Z,103050.37
2019-02-12T23:56:35.993Z,103045.22
2019-02-12T23:59:07.911Z,103049.02
